Time;durP1;ratioP1;P1;durP2;ratioP2;P2;SDS_P1;SDS_P2;PMS_P1;PMS_P2;Temp;Humidity;BMP_temperature;BMP_pressure;BME280_temperature;BME280_humidity;BME280_pressure;Samples;Min_cycle;Max_cycle;Signal;HPM_P1;HPM_P2
2023/03/23 00:01:00;;;;;;;28.05;14.60;;;;;;;10.19;79.77;99716.66;3162959;28;20424;-71
2023/03/23 00:02:35;;;;;;;30.40;14.80;;;;;;;10.20;79.72;99716.59;3159255;28;20119;-71
2023/03/23 00:04:07;;;;;;;25.27;14.85;;;;;;;10.20;80.13;99718.34;3163964;28;20059;-71
2023/03/23 00:05:40;;;;;;;27.60;14.73;;;;;;;10.20;79.77;99721.81;3163914;28;20544;-70
2023/03/23 00:07:21;;;;;;;26.50;13.90;;;;;;;10.14;79.86;99705.59;3164139;28;20082;-70
2023/03/23 00:08:59;;;;;;;28.65;15.18;;;;;;;10.17;80.25;99708.91;3164411;28;20727;-70
2023/03/23 00:10:32;;;;;;;28.55;15.05;;;;;;;10.19;80.00;99711.44;3160137;28;20069;-70
2023/03/23 00:12:05;;;;;;;25.50;13.73;;;;;;;9.56;80.08;99615.41;3153191;28;20055;-70
2023/03/23 00:13:38;;;;;;;31.00;15.18;;;;;;;10.11;80.19;99711.78;3159090;28;20093;-70
2023/03/23 00:15:12;;;;;;;28.87;15.23;;;;;;;10.17;80.14;99706.28;3159939;28;20096;-70
2023/03/23 00:16:44;;;;;;;24.42;13.88;;;;;;;10.19;80.15;99707.09;3159017;28;20044;-70
2023/03/23 00:18:22;;;;;;;30.10;14.90;;;;;;;9.46;80.36;99594.16;3151193;28;20463;-70
2023/03/23 00:19:54;;;;;;;27.13;14.25;;;;;;;10.20;80.03;99711.38;3159774;28;20124;-70
2023/03/23 00:21:32;;;;;;;29.15;14.00;;;;;;;10.17;80.21;99710.66;3161132;28;20617;-70
2023/03/23 00:23:04;;;;;;;31.40;15.00;;;;;;;10.00;80.01;99681.06;3161167;28;20368;-70
2023/03/23 00:24:37;;;;;;;25.05;13.50;;;;;;;10.15;80.21;99702.09;3161482;28;20059;-70
2023/03/23 00:26:09;;;;;;;29.30;14.20;;;;;;;10.20;79.95;99711.38;3159820;28;20052;-70
2023/03/23 00:27:41;;;;;;;27.50;14.63;;;;;;;10.22;80.27;99713.91;3162050;28;20075;-70
2023/03/23 00:29:15;;;;;;;29.13;14.23;;;;;;;10.21;80.01;99718.28;3162071;28;20056;-70
2023/03/23 00:30:47;;;;;;;23.55;14.07;;;;;;;10.21;80.05;99713.06;3161320;28;20174;-70
2023/03/23 00:32:20;;;;;;;34.13;14.90;;;;;;;10.23;80.27;99708.66;3161872;28;20117;-70
2023/03/23 00:33:53;;;;;;;;;;;;;;;10.17;80.10;99710.66;3161928;28;20056;-70
2023/03/23 00:35:27;;;;;;;30.73;13.60;;;;;;;10.15;80.11;99717.72;3161846;27;20626;-70
2023/03/23 00:36:59;;;;;;;27.50;14.35;;;;;;;10.12;80.57;99707.44;3161468;27;20082;-70
2023/03/23 00:38:32;;;;;;;28.65;15.23;;;;;;;10.11;80.28;99703.97;3161219;28;20874;-70
2023/03/23 00:40:10;;;;;;;28.98;15.20;;;;;;;10.15;80.69;99713.34;3161331;28;20063;-69
2023/03/23 00:41:42;;;;;;;31.48;16.70;;;;;;;10.14;80.41;99710.81;3153169;28;20600;-71
2023/03/23 00:43:15;;;;;;;27.58;14.73;;;;;;;10.13;80.50;99715.16;3159138;28;20047;-69
2023/03/23 00:44:47;;;;;;;29.02;15.07;;;;;;;9.88;81.03;99670.31;3161925;28;20051;-71
2023/03/23 00:46:20;;;;;;;30.55;15.45;;;;;;;10.10;81.05;99710.09;3161264;28;20489;-69
2023/03/23 00:47:52;;;;;;;26.77;14.80;;;;;;;10.10;81.10;99704.91;3161137;28;20163;-69
2023/03/23 00:49:26;;;;;;;34.30;15.27;;;;;;;10.10;81.02;99704.06;3161713;28;20579;-69
2023/03/23 00:50:58;;;;;;;27.83;15.68;;;;;;;10.02;81.01;99692.22;3161707;28;20056;-69
2023/03/23 00:52:30;;;;;;;32.58;15.93;;;;;;;10.10;80.86;99699.69;3162472;27;20565;-70
2023/03/23 00:54:02;;;;;;;31.90;15.68;;;;;;;9.89;81.20;99661.63;3161718;28;20074;-70
2023/03/23 00:55:33;;;;;;;30.48;15.10;;;;;;;10.13;80.90;99698.72;3158403;28;20116;-69
2023/03/23 00:57:06;;;;;;;31.05;16.05;;;;;;;10.12;81.27;99697.88;3151571;28;20055;-70
2023/03/23 00:58:38;;;;;;;37.30;16.95;;;;;;;10.06;80.87;99679.06;3161565;28;20047;-69
2023/03/23 01:00:12;;;;;;;28.80;15.68;;;;;;;10.14;80.81;99697.78;3161366;28;20086;-69
2023/03/23 01:01:44;;;;;;;31.60;15.85;;;;;;;10.08;81.19;99677.25;3161516;28;20090;-71
2023/03/23 01:03:18;;;;;;;29.58;15.90;;;;;;;10.08;80.85;99682.44;3161758;28;20166;-69
2023/03/23 01:04:52;;;;;;;32.05;15.88;;;;;;;10.08;81.28;99685.91;3161360;28;20062;-71
2023/03/23 01:06:24;;;;;;;31.38;15.88;;;;;;;10.15;81.21;99689.94;3153130;28;20539;-71
2023/03/23 01:07:56;;;;;;;29.95;15.00;;;;;;;10.16;81.03;99693.38;3170365;28;20097;-70
2023/03/23 01:09:28;;;;;;;29.92;15.63;;;;;;;10.15;80.98;99696.91;3170912;28;20109;-70
2023/03/23 01:11:03;;;;;;;31.90;16.55;;;;;;;10.09;81.30;99681.56;3167647;28;20040;-71
2023/03/23 01:12:35;;;;;;;31.65;15.85;;;;;;;10.15;80.94;99692.53;3168698;28;20075;-71
2023/03/23 01:14:07;;;;;;;29.52;15.55;;;;;;;10.03;80.87;99670.50;3170785;28;20740;-71
2023/03/23 01:15:39;;;;;;;39.25;15.75;;;;;;;10.10;81.10;99678.88;3170655;28;20181;-70
2023/03/23 01:17:11;;;;;;;33.20;16.42;;;;;;;10.07;81.25;99684.22;3170764;28;20048;-71
2023/03/23 01:18:42;;;;;;;30.15;15.82;;;;;;;10.14;80.93;99695.19;3170737;28;20513;-71
2023/03/23 01:20:17;;;;;;;31.27;16.52;;;;;;;10.14;81.16;99697.78;3164945;28;20048;-71
2023/03/23 01:21:49;;;;;;;35.92;15.32;;;;;;;10.11;81.02;99693.56;3160759;28;20055;-71
2023/03/23 01:23:20;;;;;;;29.48;16.08;;;;;;;10.12;81.22;99691.84;3161333;28;20051;-71
2023/03/23 01:24:52;;;;;;;29.83;15.68;;;;;;;9.96;81.37;99673.44;3160632;28;20093;-71
2023/03/23 01:26:26;;;;;;;26.80;15.43;;;;;;;10.11;81.00;99693.56;3159264;28;20134;-71
2023/03/23 01:27:59;;;;;;;29.25;16.25;;;;;;;10.11;81.28;99698.75;3160938;28;20082;-71
2023/03/23 01:29:31;;;;;;;28.08;15.70;;;;;;;9.97;80.92;99670.78;3160526;28;20608;-70
2023/03/23 01:31:04;;;;;;;29.88;16.00;;;;;;;10.11;81.03;99693.56;3160721;28;20113;-71
2023/03/23 01:32:36;;;;;;;32.80;14.48;;;;;;;10.11;80.95;99697.94;3160116;28;20525;-71
2023/03/23 01:34:10;;;;;;;27.73;15.68;;;;;;;10.11;81.09;99692.72;3160121;28;20059;-71
2023/03/23 01:35:42;;;;;;;32.95;15.85;;;;;;;9.95;81.10;99679.56;3150689;28;20809;-71
2023/03/23 01:37:15;;;;;;;29.87;16.30;;;;;;;10.10;81.09;99696.25;3160704;28;20054;-71
2023/03/23 01:38:48;;;;;;;32.78;16.67;;;;;;;10.08;81.13;99709.31;3160970;28;20079;-71
2023/03/23 01:40:20;;;;;;;32.77;17.00;;;;;;;10.09;81.27;99702.38;3148433;28;20051;-72
2023/03/23 01:41:52;;;;;;;35.15;17.00;;;;;;;10.08;81.35;99698.91;3149755;28;20317;-70
2023/03/23 01:43:24;;;;;;;33.75;17.20;;;;;;;10.08;81.46;99700.66;3159122;28;20062;-70
2023/03/23 01:45:25;;;;;;;32.42;16.85;;;;;;;10.07;81.05;99704.19;3161218;28;20055;-70
2023/03/23 01:46:58;;;;;;;32.05;17.10;;;;;;;10.05;81.16;99708.59;3150809;28;20108;-70
2023/03/23 01:48:33;;;;;;;38.38;18.92;;;;;;;9.98;81.33;99692.44;3160843;28;20079;-70
2023/03/23 01:50:05;;;;;;;35.45;17.85;;;;;;;10.05;81.42;99704.25;3157420;28;20514;-70
2023/03/23 01:51:42;;;;;;;32.47;17.70;;;;;;;9.97;81.56;99694.19;3159613;28;20542;-71
2023/03/23 01:53:13;;;;;;;34.28;17.98;;;;;;;10.05;81.72;99704.25;3160312;28;20092;-70
2023/03/23 01:54:47;;;;;;;38.50;17.58;;;;;;;10.05;81.77;99701.66;3159420;28;20058;-70
2023/03/23 01:56:24;;;;;;;33.00;18.40;;;;;;;9.99;81.34;99692.34;3152034;28;20083;-70
2023/03/23 01:57:58;;;;;;;34.05;17.95;;;;;;;10.03;81.80;99700.88;3158713;28;20176;-70
2023/03/23 01:59:31;;;;;;;33.90;18.95;;;;;;;9.58;81.58;99631.75;3160674;28;20079;-71
2023/03/23 02:01:04;;;;;;;;;;;;;;;9.94;81.74;99699.53;3160838;28;20058;-70
2023/03/23 02:02:38;;;;;;;34.67;18.08;;;;;;;9.93;82.37;99699.59;3160635;28;20006;-71
2023/03/23 02:04:10;;;;;;;32.20;17.08;;;;;;;9.93;82.31;99703.03;3161322;28;20051;-71
2023/03/23 02:05:43;;;;;;;33.20;18.10;;;;;;;9.97;82.26;99703.75;3160426;28;20139;-71
2023/03/23 02:07:21;;;;;;;32.17;17.23;;;;;;;9.98;82.05;99701.06;3160490;28;20231;-70
2023/03/23 02:08:53;;;;;;;30.92;16.35;;;;;;;10.00;82.08;99711.44;3160602;28;20056;-70
2023/03/23 02:10:24;;;;;;;35.67;17.25;;;;;;;10.01;82.07;99705.31;3160542;28;20047;-70
2023/03/23 02:11:56;;;;;;;33.13;17.38;;;;;;;9.86;82.14;99687.78;3154666;28;20491;-70
2023/03/23 02:13:29;;;;;;;34.88;16.98;;;;;;;9.99;82.08;99701.91;3160628;28;20504;-70
2023/03/23 02:15:02;;;;;;;29.92;16.20;;;;;;;9.96;82.14;99700.28;3160223;28;20470;-70
2023/03/23 02:16:39;;;;;;;;;;;;;;;9.90;82.38;99708.38;3163830;28;20183;-70
2023/03/23 02:18:21;;;;;;;35.22;16.33;;;;;;;9.87;82.58;99705.06;3155428;28;20022;-70
2023/03/23 02:20:27;;;;;;;35.60;16.70;;;;;;;9.87;82.31;99707.66;3164824;28;20112;-70
2023/03/23 02:22:39;;;;;;;28.15;15.50;;;;;;;9.85;82.31;99705.16;3164958;28;20167;-70
2023/03/23 02:24:46;;;;;;;28.98;15.80;;;;;;;9.84;82.65;99710.41;3164992;28;20100;-70
2023/03/23 02:26:36;;;;;;;30.42;15.77;;;;;;;9.80;82.56;99707.09;3156999;28;20067;-70
2023/03/23 02:28:38;;;;;;;34.65;16.67;;;;;;;9.74;82.42;99716.00;3164840;28;20597;-70
2023/03/23 02:30:32;;;;;;;30.42;15.18;;;;;;;9.72;82.59;99712.63;3164054;28;20158;-71
2023/03/23 02:32:18;;;;;;;33.08;16.48;;;;;;;9.72;82.63;99714.38;3164022;28;20101;-71
2023/03/23 02:33:56;;;;;;;35.05;17.13;;;;;;;9.71;82.92;99710.94;3164443;28;20519;-71
2023/03/23 02:35:31;;;;;;;30.63;15.95;;;;;;;8.80;82.72;99571.00;3155065;28;20055;-71
2023/03/23 02:37:09;;;;;;;32.88;16.98;;;;;;;9.62;82.68;99695.72;3164721;28;20048;-71
2023/03/23 02:38:50;;;;;;;32.08;17.25;;;;;;;9.69;82.59;99707.53;3164787;28;20545;-71
2023/03/23 02:40:27;;;;;;;37.28;18.58;;;;;;;9.66;82.76;99709.44;3161483;28;20776;-70
2023/03/23 02:42:03;;;;;;;32.60;18.67;;;;;;;9.64;82.68;99708.66;3147957;28;20458;-70
2023/03/23 02:43:41;;;;;;;32.65;17.30;;;;;;;9.61;82.84;99709.63;3159329;28;20595;-70
2023/03/23 02:45:15;;;;;;;31.50;16.67;;;;;;;9.59;83.21;99710.63;3157778;28;20051;-71
2023/03/23 02:46:49;;;;;;;34.30;17.92;;;;;;;9.56;82.82;99709.84;3160224;28;20051;-71
2023/03/23 02:48:25;;;;;;;34.88;17.85;;;;;;;9.08;83.04;99639.97;3159424;28;20484;-71
2023/03/23 02:50:00;;;;;;;36.10;17.88;;;;;;;9.50;83.13;99714.47;3159917;28;20079;-71
2023/03/23 02:51:34;;;;;;;34.85;18.27;;;;;;;9.47;83.14;99718.03;3160710;28;20146;-71
2023/03/23 02:53:10;;;;;;;36.50;18.02;;;;;;;9.34;83.14;99707.28;3160806;28;20094;-71
2023/03/23 02:54:44;;;;;;;36.53;18.55;;;;;;;9.42;83.25;99727.75;3160595;28;20047;-71
2023/03/23 02:56:15;;;;;;;;;;;;;;;9.35;83.59;99721.13;3154968;28;20500;-71
2023/03/23 02:57:48;;;;;;;35.03;17.23;;;;;;;9.26;83.65;99711.97;3156135;28;19931;-71
2023/03/23 02:59:20;;;;;;;36.20;18.15;;;;;;;9.32;84.00;99716.91;3160352;28;20047;-71
2023/03/23 03:00:53;;;;;;;36.63;17.88;;;;;;;9.33;83.75;99720.34;3160893;28;20157;-71
2023/03/23 03:02:28;;;;;;;42.40;19.27;;;;;;;9.33;83.64;99717.75;3160409;28;20539;-70
2023/03/23 03:04:03;;;;;;;40.20;18.13;;;;;;;9.33;83.87;99720.34;3160756;28;20845;-70
2023/03/23 03:05:43;;;;;;;41.13;19.77;;;;;;;9.31;84.02;99725.59;3160290;28;20560;-70
2023/03/23 03:07:37;;;;;;;42.55;19.42;;;;;;;9.30;83.79;99726.50;3160109;28;20553;-70
2023/03/23 03:09:14;;;;;;;42.63;20.08;;;;;;;9.30;84.22;99731.72;3159413;28;20119;-69
2023/03/23 03:10:54;;;;;;;51.58;22.73;;;;;;;9.29;84.25;99727.44;3159300;28;20224;-70
2023/03/23 03:12:35;;;;;;;45.58;20.48;;;;;;;9.27;83.80;99734.44;3157743;28;20108;-69
2023/03/23 03:14:16;;;;;;;46.72;20.35;;;;;;;9.18;84.08;99716.63;3164525;28;20120;-69
2023/03/23 03:15:56;;;;;;;48.10;19.50;;;;;;;9.25;83.83;99730.19;3169319;28;20062;-69
2023/03/23 03:17:31;;;;;;;44.42;19.10;;;;;;;9.23;84.10;99732.88;3169538;28;20060;-69
2023/03/23 03:19:11;;;;;;;42.15;18.70;;;;;;;9.22;84.32;99728.56;3169573;28;20136;-69
2023/03/23 03:20:47;;;;;;;39.88;18.50;;;;;;;9.23;84.34;99732.00;3160503;28;20440;-69
2023/03/23 03:22:21;;;;;;;36.00;18.63;;;;;;;9.22;84.20;99738.97;3158723;28;20562;-70
2023/03/23 03:23:58;;;;;;;37.58;17.75;;;;;;;9.21;83.90;99739.88;3158931;28;20211;-69
2023/03/23 03:25:31;;;;;;;35.05;18.45;;;;;;;9.10;84.17;99727.31;3159552;28;20623;-70
2023/03/23 03:27:06;;;;;;;39.50;19.15;;;;;;;9.20;84.09;99746.00;3157016;28;20770;-71
2023/03/23 03:28:38;;;;;;;36.45;17.73;;;;;;;9.20;83.69;99742.53;3159809;28;20473;-69
2023/03/23 03:30:14;;;;;;;35.03;17.17;;;;;;;9.19;84.10;99748.66;3158810;28;20299;-69
2023/03/23 03:31:48;;;;;;;36.92;17.77;;;;;;;9.17;84.12;99738.34;3158860;28;20577;-71
2023/03/23 03:33:25;;;;;;;34.33;16.58;;;;;;;8.46;84.09;99628.63;3160387;28;20118;-70
2023/03/23 03:34:57;;;;;;;30.15;16.50;;;;;;;9.16;83.89;99741.81;3159252;28;20842;-71
2023/03/23 03:36:34;;;;;;;34.42;17.48;;;;;;;9.05;83.74;99723.22;3160079;28;20064;-71
2023/03/23 03:38:08;;;;;;;31.98;15.85;;;;;;;9.15;83.88;99740.13;3157486;28;20135;-71
2023/03/23 03:39:40;;;;;;;36.13;17.30;;;;;;;8.55;83.76;99656.81;3158679;28;20055;-71
2023/03/23 03:41:12;;;;;;;33.25;16.55;;;;;;;9.14;83.41;99751.44;3154170;28;20524;-71
2023/03/23 03:42:46;;;;;;;33.92;16.40;;;;;;;9.13;83.53;99749.72;3151700;28;20502;-71
2023/03/23 03:44:17;;;;;;;;;;;;;;;9.07;83.58;99757.78;3159473;28;20623;-71
2023/03/23 03:45:50;;;;;;;34.30;15.85;;;;;;;8.95;83.82;99738.31;3158986;28;19923;-71
2023/03/23 03:47:21;;;;;;;34.75;16.48;;;;;;;9.03;84.04;99756.22;3159514;28;20221;-70
2023/03/23 03:48:53;;;;;;;37.20;17.45;;;;;;;9.04;84.05;99752.69;3159012;28;20056;-70
2023/03/23 03:50:26;;;;;;;34.20;17.15;;;;;;;9.02;83.89;99741.50;3158990;28;20065;-70
2023/03/23 03:51:58;;;;;;;42.03;17.20;;;;;;;9.05;83.60;99747.47;3155756;28;20051;-70
2023/03/23 03:53:30;;;;;;;37.15;18.17;;;;;;;9.04;83.91;99756.13;3159095;28;20090;-70
2023/03/23 03:55:03;;;;;;;32.60;16.58;;;;;;;9.04;83.67;99757.91;3154664;28;20497;-70
2023/03/23 03:56:37;;;;;;;39.83;18.45;;;;;;;8.85;83.54;99722.25;3149017;28;20051;-70
2023/03/23 03:58:10;;;;;;;37.40;18.25;;;;;;;8.87;83.58;99724.78;3162713;28;20267;-70
2023/03/23 03:59:41;;;;;;;37.13;17.55;;;;;;;9.02;83.43;99749.31;3162566;28;20527;-70
2023/03/23 04:01:13;;;;;;;39.72;18.30;;;;;;;8.87;83.35;99732.56;3162835;28;20051;-70
2023/03/23 04:02:47;;;;;;;43.33;19.60;;;;;;;9.02;83.38;99749.31;3163069;28;20476;-70
2023/03/23 04:04:20;;;;;;;39.33;17.75;;;;;;;9.00;83.38;99759.78;3162871;28;20329;-70
2023/03/23 04:05:52;;;;;;;33.78;16.73;;;;;;;8.98;83.68;99748.59;3161852;28;20538;-71
2023/03/23 04:07:29;;;;;;;33.13;16.10;;;;;;;8.99;83.59;99758.09;3161848;28;20887;-69
2023/03/23 04:09:01;;;;;;;32.33;16.23;;;;;;;8.98;83.71;99763.34;3161159;28;20079;-71
2023/03/23 04:10:33;;;;;;;33.00;16.60;;;;;;;8.97;83.73;99761.66;3161858;28;20553;-71
2023/03/23 04:12:06;;;;;;;35.65;16.60;;;;;;;8.96;83.71;99759.94;3157194;28;20071;-71
2023/03/23 04:13:39;;;;;;;27.85;14.70;;;;;;;8.95;83.48;99761.69;3161620;28;20150;-70
2023/03/23 04:15:11;;;;;;;34.15;15.98;;;;;;;8.90;83.40;99748.03;3162004;28;20055;-70
2023/03/23 04:16:43;;;;;;;31.02;15.88;;;;;;;8.94;83.48;99752.22;3161990;28;20044;-70
2023/03/23 04:18:17;;;;;;;34.92;16.10;;;;;;;8.55;83.30;99698.34;3161553;28;20062;-71
2023/03/23 04:19:49;;;;;;;33.90;16.60;;;;;;;8.95;83.44;99758.25;3161881;28;20048;-70
2023/03/23 04:21:20;;;;;;;32.65;17.17;;;;;;;8.95;83.36;99761.69;3161308;28;20532;-71
2023/03/23 04:22:54;;;;;;;40.17;17.90;;;;;;;8.95;83.34;99766.06;3161250;28;20055;-70
2023/03/23 04:24:28;;;;;;;33.63;16.67;;;;;;;8.86;83.28;99751.66;3160853;28;20241;-70
2023/03/23 04:26:00;;;;;;;33.97;15.88;;;;;;;8.93;83.29;99762.66;3156642;28;20044;-69
2023/03/23 04:27:31;;;;;;;36.88;17.50;;;;;;;8.93;83.25;99760.06;3148822;28;20389;-70
2023/03/23 04:29:03;;;;;;;31.05;16.60;;;;;;;8.91;83.34;99764.50;3160270;28;20512;-70
2023/03/23 04:30:35;;;;;;;31.67;16.33;;;;;;;8.91;83.15;99762.72;3160960;28;20608;-69
2023/03/23 04:32:07;;;;;;;35.47;16.92;;;;;;;8.57;83.18;99704.31;3160852;28;20558;-70
2023/03/23 04:33:40;;;;;;;35.22;16.40;;;;;;;8.86;83.45;99767.25;3161112;28;20051;-70
2023/03/23 04:35:14;;;;;;;32.45;16.10;;;;;;;8.85;83.61;99760.38;3158705;27;20559;-69
2023/03/23 04:36:46;;;;;;;36.70;16.92;;;;;;;8.86;83.61;99762.06;3161340;28;20052;-69
2023/03/23 04:38:20;;;;;;;35.45;16.73;;;;;;;8.84;83.41;99762.13;3162276;28;20615;-69
2023/03/23 04:40:00;;;;;;;30.48;16.10;;;;;;;8.85;83.77;99771.59;3161273;28;20580;-69
2023/03/23 04:41:32;;;;;;;31.00;15.88;;;;;;;8.85;83.81;99768.16;3149933;28;20155;-69
2023/03/23 04:43:05;;;;;;;35.88;16.42;;;;;;;8.85;83.49;99761.22;3156094;28;20058;-70
2023/03/23 04:44:37;;;;;;;36.17;16.67;;;;;;;8.79;83.65;99753.66;3161328;28;20105;-70
2023/03/23 04:46:08;;;;;;;34.08;16.75;;;;;;;8.10;83.18;99646.41;3161790;28;20062;-71
2023/03/23 04:47:40;;;;;;;34.58;16.73;;;;;;;8.86;83.64;99775.03;3156897;28;20044;-70
2023/03/23 04:49:15;;;;;;;33.13;16.88;;;;;;;8.86;83.24;99772.44;3162186;28;20057;-70
2023/03/23 04:50:48;;;;;;;38.05;17.60;;;;;;;8.87;83.28;99772.41;3160986;28;20104;-68
2023/03/23 04:52:20;;;;;;;36.42;17.95;;;;;;;8.87;83.15;99763.75;3161010;28;20043;-71
2023/03/23 04:53:54;;;;;;;41.33;18.95;;;;;;;8.87;83.45;99775.00;3161454;28;20081;-70
2023/03/23 04:55:27;;;;;;;37.55;18.25;;;;;;;8.49;83.31;99714.16;3160970;28;20047;-70
2023/03/23 04:56:59;;;;;;;35.33;18.77;;;;;;;8.82;83.21;99756.16;3151885;28;20381;-71
2023/03/23 04:58:33;;;;;;;36.80;18.50;;;;;;;8.87;83.46;99769.81;3160918;28;20051;-71
2023/03/23 05:00:08;;;;;;;34.05;18.33;;;;;;;8.88;83.54;99768.88;3160483;28;20063;-71
2023/03/23 05:01:45;;;;;;;32.90;16.42;;;;;;;8.89;83.50;99770.56;3154830;28;20052;-71
2023/03/23 05:03:17;;;;;;;35.10;17.48;;;;;;;8.88;83.34;99766.28;3157735;28;20109;-70
2023/03/23 05:04:50;;;;;;;35.42;17.00;;;;;;;8.91;83.20;99769.69;3160811;28;20850;-71
2023/03/23 05:06:22;;;;;;;38.03;16.58;;;;;;;8.93;83.48;99773.03;3160533;28;20051;-73
2023/03/23 05:07:54;;;;;;;31.58;16.83;;;;;;;8.93;83.57;99767.84;3160451;28;20078;-73
2023/03/23 05:09:47;;;;;;;31.20;15.52;;;;;;;8.86;83.38;99755.09;3162655;28;20054;-74
2023/03/23 05:11:19;;;;;;;33.17;15.23;;;;;;;8.80;83.44;99750.16;3160050;28;20496;-78
2023/03/23 05:12:50;;;;;;;31.58;15.90;;;;;;;8.94;83.47;99773.00;3170792;28;20051;-74
2023/03/23 05:14:22;;;;;;;34.47;16.95;;;;;;;8.83;83.12;99755.22;3170640;28;20056;-74
2023/03/23 05:15:55;;;;;;;36.88;16.38;;;;;;;8.96;83.05;99768.59;3159558;28;20056;-75
2023/03/23 05:17:27;;;;;;;36.03;17.75;;;;;;;8.97;83.17;99772.03;3160284;28;20483;-75
2023/03/23 05:18:59;;;;;;;34.42;16.70;;;;;;;8.48;82.99;99696.03;3169796;28;20124;-75
2023/03/23 05:20:32;;;;;;;133.75;70.75;;;;;;;8.89;83.13;99765.38;3170116;27;20083;-75
2023/03/23 05:22:03;;;;;;;91.13;46.97;;;;;;;8.98;82.94;99773.72;3170830;28;20086;-75
2023/03/23 05:23:35;;;;;;;98.07;54.97;;;;;;;8.93;82.91;99765.25;3170854;28;20047;-76
2023/03/23 05:25:10;;;;;;;40.80;21.17;;;;;;;8.09;83.01;99626.56;3170648;28;20108;-81
2023/03/23 05:26:42;;;;;;;36.83;19.00;;;;;;;8.91;82.88;99760.13;3161689;28;20131;-81
2023/03/23 05:28:14;;;;;;;30.67;17.00;;;;;;;9.02;83.05;99780.47;3170494;28;20052;-75
2023/03/23 05:29:48;;;;;;;40.85;18.15;;;;;;;8.99;83.00;99770.22;3170091;28;20058;-78
2023/03/23 05:31:21;;;;;;;34.10;17.95;;;;;;;8.97;82.88;99779.84;3165000;27;20047;-77
2023/03/23 05:32:53;;;;;;;34.28;16.48;;;;;;;8.79;82.99;99745.88;3170415;28;20056;-75
2023/03/23 05:34:26;;;;;;;29.00;15.85;;;;;;;9.08;82.76;99788.91;3170564;28;20529;-75
2023/03/23 05:35:58;;;;;;;31.15;16.83;;;;;;;9.09;82.78;99793.19;3170173;28;20051;-73
2023/03/23 05:37:31;;;;;;;33.97;17.83;;;;;;;9.03;83.04;99783.03;3169634;28;20063;-77
2023/03/23 05:39:04;;;;;;;29.80;15.82;;;;;;;9.11;82.63;99799.16;3170108;28;20444;-75
2023/03/23 05:40:37;;;;;;;34.50;17.50;;;;;;;9.03;82.52;99783.03;3170092;28;20134;-72
2023/03/23 05:42:09;;;;;;;33.65;16.70;;;;;;;9.05;82.75;99793.34;3168417;28;20087;-73
2023/03/23 05:43:41;;;;;;;32.55;16.40;;;;;;;9.08;82.49;99799.28;3170172;28;20047;-72
2023/03/23 05:45:13;;;;;;;32.20;16.63;;;;;;;9.15;82.70;99810.28;3157427;28;20048;-72
2023/03/23 05:46:44;;;;;;;37.08;16.17;;;;;;;8.66;82.64;99729.06;3165195;28;20373;-72
2023/03/23 05:48:16;;;;;;;35.33;17.13;;;;;;;8.84;82.70;99753.47;3169571;28;20724;-74
2023/03/23 05:49:48;;;;;;;41.80;18.35;;;;;;;9.18;82.54;99812.75;3168905;28;20672;-74
2023/03/23 05:51:20;;;;;;;37.67;17.38;;;;;;;9.19;82.37;99811.00;3169149;28;20084;-74
2023/03/23 05:52:52;;;;;;;32.75;17.63;;;;;;;9.21;82.43;99814.41;3170159;28;20109;-72
2023/03/23 05:54:24;;;;;;;36.25;18.20;;;;;;;9.15;82.68;99799.06;3169283;28;20489;-72
2023/03/23 05:56:01;;;;;;;34.45;18.73;;;;;;;9.21;82.45;99815.22;3166225;28;20116;-72
2023/03/23 05:57:33;;;;;;;31.02;18.10;;;;;;;9.22;82.31;99818.69;3168772;28;20082;-73
2023/03/23 05:59:05;;;;;;;35.28;16.52;;;;;;;9.23;82.52;99816.03;3169723;28;20514;-73
2023/03/23 06:00:37;;;;;;;35.95;17.35;;;;;;;9.22;82.48;99827.31;3164265;28;20048;-74
2023/03/23 06:02:08;;;;;;;34.22;17.98;;;;;;;9.25;82.30;99826.34;3163748;28;20800;-73
2023/03/23 06:03:40;;;;;;;47.95;23.38;;;;;;;9.25;82.22;99834.16;3163789;28;20134;-73
2023/03/23 06:05:11;;;;;;;75.95;36.53;;;;;;;9.26;82.55;99831.50;3163991;28;20064;-72
2023/03/23 06:06:45;;;;;;;54.33;27.80;;;;;;;9.28;82.56;99831.44;3164707;28;20047;-72
2023/03/23 06:08:17;;;;;;;41.38;21.88;;;;;;;9.28;82.63;99826.22;3164574;28;20108;-73
2023/03/23 06:09:50;;;;;;;39.70;20.60;;;;;;;9.29;82.32;99823.59;3164384;28;20150;-73
2023/03/23 06:11:24;;;;;;;35.35;19.48;;;;;;;9.27;82.48;99825.38;3164042;28;20185;-72
2023/03/23 06:12:56;;;;;;;35.75;17.27;;;;;;;9.34;82.45;99828.59;3164279;28;20085;-74
2023/03/23 06:14:28;;;;;;;36.78;17.52;;;;;;;8.88;82.36;99758.50;3164210;28;20043;-72
2023/03/23 06:16:00;;;;;;;35.70;16.60;;;;;;;9.33;82.39;99827.75;3164623;28;20525;-73
2023/03/23 06:17:32;;;;;;;38.10;17.33;;;;;;;9.34;82.45;99832.03;3164590;28;20047;-73
2023/03/23 06:19:04;;;;;;;35.38;17.55;;;;;;;9.45;82.03;99842.00;3163298;28;20055;-74
2023/03/23 06:20:37;;;;;;;40.28;16.65;;;;;;;9.49;82.22;99840.97;3160285;28;20134;-77
2023/03/23 06:22:10;;;;;;;33.35;16.90;;;;;;;9.53;82.27;99844.31;3159426;28;20598;-73
2023/03/23 06:23:42;;;;;;;33.15;17.35;;;;;;;9.05;82.14;99762.19;3159940;28;20413;-76
2023/03/23 06:25:15;;;;;;;31.63;17.17;;;;;;;9.55;81.82;99837.28;3151680;28;20048;-75
2023/03/23 06:26:49;;;;;;;34.40;16.58;;;;;;;9.42;82.14;99813.53;3149830;28;20509;-78
2023/03/23 06:28:22;;;;;;;27.95;15.20;;;;;;;9.28;82.10;99788.09;3159895;28;20143;-78
2023/03/23 06:29:56;;;;;;;31.05;15.80;;;;;;;9.67;82.22;99843.72;3161158;28;20517;-75
2023/03/23 06:31:27;;;;;;;35.33;17.15;;;;;;;9.59;81.81;99825.84;3161163;28;20043;-76
2023/03/23 06:32:59;;;;;;;31.55;15.88;;;;;;;9.73;81.86;99840.88;3151756;28;20523;-75
2023/03/23 06:34:32;;;;;;;33.72;16.92;;;;;;;9.74;81.88;99843.44;3157258;28;20070;-73
2023/03/23 06:36:06;;;;;;;30.10;14.30;;;;;;;9.42;82.02;99792.75;3153518;28;20086;-75
2023/03/23 06:37:38;;;;;;;95.25;52.33;;;;;;;9.79;81.95;99849.28;3157598;28;20039;-71
2023/03/23 06:39:10;;;;;;;158.30;79.32;;;;;;;9.83;81.96;99843.97;3160613;28;20135;-69
2023/03/23 06:40:46;;;;;;;264.60;128.95;;;;;;;9.85;81.86;99853.41;3158679;28;20124;-69
2023/03/23 06:42:20;;;;;;;230.57;105.30;;;;;;;9.90;81.70;99842.78;3158821;28;20125;-69
2023/03/23 06:43:53;;;;;;;105.70;56.40;;;;;;;9.94;81.92;99841.78;3160285;28;20087;-71
2023/03/23 06:45:25;;;;;;;135.63;74.43;;;;;;;9.97;81.81;99855.50;3159428;28;20047;-69
2023/03/23 06:46:57;;;;;;;148.75;82.72;;;;;;;10.03;81.80;99851.78;3160237;28;20051;-69
2023/03/23 06:48:30;;;;;;;59.25;32.58;;;;;;;10.02;81.89;99842.28;3160333;28;20044;-72
2023/03/23 06:50:02;;;;;;;39.90;21.10;;;;;;;10.12;81.63;99855.75;3154721;28;20071;-78
2023/03/23 06:51:33;;;;;;;35.60;17.80;;;;;;;10.14;81.70;99857.34;3154665;28;20445;-71
2023/03/23 06:53:05;;;;;;;33.30;18.63;;;;;;;10.17;81.73;99852.03;3159794;28;20123;-71
2023/03/23 06:54:36;;;;;;;40.75;18.17;;;;;;;10.20;81.80;99849.31;3159318;28;20154;-71
2023/03/23 06:56:08;;;;;;;45.85;16.77;;;;;;;10.09;81.67;99830.72;3147225;28;20047;-71
2023/03/23 06:57:42;;;;;;;40.70;17.77;;;;;;;10.27;81.44;99855.13;3152255;28;20065;-71
2023/03/23 06:59:14;;;;;;;;;;;;;;;10.26;81.49;99850.78;3161555;28;20051;-71
2023/03/23 07:00:46;;;;;;;37.03;17.85;;;;;;;10.35;81.92;99845.25;3160372;28;20000;-71
2023/03/23 07:02:18;;;;;;;34.95;18.92;;;;;;;10.57;81.77;99846.91;3159340;28;20085;-71
2023/03/23 07:03:49;;;;;;;37.55;17.73;;;;;;;10.80;81.25;99845.88;3165866;28;20047;-71
2023/03/23 07:05:21;;;;;;;252.80;28.70;;;;;;;11.03;81.50;99850.88;3169449;28;20043;-71
2023/03/23 07:06:53;;;;;;;643.58;58.83;;;;;;;11.10;80.84;99822.75;3169429;28;20055;-74
2023/03/23 07:08:24;;;;;;;407.63;39.53;;;;;;;11.66;79.78;99858.31;3169614;28;20056;-64
2023/03/23 07:09:57;;;;;;;49.58;16.98;;;;;;;12.22;76.85;99859.06;3169767;28;20572;-69
2023/03/23 07:11:29;;;;;;;38.80;17.85;;;;;;;12.31;75.15;99814.19;3161963;28;20043;-71
2023/03/23 07:13:02;;;;;;;40.65;17.60;;;;;;;12.73;73.29;99857.25;3167322;28;20055;-69
2023/03/23 07:14:35;;;;;;;37.47;18.33;;;;;;;12.83;72.65;99863.69;3169476;28;20052;-67
2023/03/23 07:16:08;;;;;;;35.83;18.70;;;;;;;12.99;71.99;99863.72;3169259;28;20055;-66
2023/03/23 07:17:41;;;;;;;35.78;18.35;;;;;;;12.89;71.29;99824.13;3169184;28;20044;-68